createdAt,value
2022-08-23T00:00:12.854Z,2.90
2022-08-23T00:01:18.562Z,3.20
2022-08-23T00:02:24.083Z,3.10
2022-08-23T00:03:25.832Z,3.17
2022-08-23T00:04:34.847Z,2.30
2022-08-23T00:05:36.993Z,2.60
2022-08-23T00:06:39.713Z,2.80
2022-08-23T00:07:43.755Z,3.13
2022-08-23T00:08:48.623Z,3.10
2022-08-23T00:09:50.469Z,2.83
2022-08-23T00:10:52.087Z,2.70
2022-08-23T00:12:02.698Z,2.57
2022-08-23T00:13:04.326Z,3.20
2022-08-23T00:14:16.383Z,2.90
2022-08-23T00:15:20.383Z,2.90
2022-08-23T00:16:22.365Z,2.80
2022-08-23T00:17:31.034Z,3.00
2022-08-23T00:18:35.576Z,2.90
2022-08-23T00:19:39.352Z,2.73
2022-08-23T00:20:41.028Z,2.60
2022-08-23T00:21:43.875Z,2.70
2022-08-23T00:22:45.538Z,3.47
2022-08-23T00:23:47.239Z,3.23
2022-08-23T00:24:49.592Z,3.70
2022-08-23T00:25:51.233Z,3.07
2022-08-23T00:27:07.572Z,2.53
2022-08-23T00:28:14.679Z,3.00
2022-08-23T00:29:17.225Z,2.93
2022-08-23T00:30:19.360Z,3.00
2022-08-23T00:31:21.098Z,3.20
2022-08-23T00:32:31.884Z,3.00
2022-08-23T00:33:33.582Z,3.20
2022-08-23T00:34:37.123Z,2.37
2022-08-23T00:35:38.996Z,2.63
2022-08-23T00:36:41.138Z,3.30
2022-08-23T00:37:43.002Z,2.60
2022-08-23T00:38:52.324Z,2.90
2022-08-23T00:39:54.069Z,2.73
2022-08-23T00:40:56.711Z,2.63
2022-08-23T00:42:24.116Z,2.70
2022-08-23T00:43:57.053Z,2.90
2022-08-23T00:45:20.745Z,3.10
2022-08-23T00:47:01.853Z,3.00
2022-08-23T00:48:05.781Z,2.97
2022-08-23T00:49:11.238Z,3.17
2022-08-23T00:50:24.024Z,3.13
2022-08-23T00:51:43.141Z,2.80
2022-08-23T00:53:14.553Z,2.97
2022-08-23T00:54:17.050Z,3.40
2022-08-23T00:55:21.100Z,2.93
2022-08-23T00:56:25.508Z,3.07
2022-08-23T00:57:31.148Z,3.23
2022-08-23T00:58:32.818Z,2.87
2022-08-23T00:59:34.524Z,3.40
2022-08-23T01:00:36.338Z,3.10
2022-08-23T01:01:38.981Z,2.73
2022-08-23T01:02:42.201Z,3.37
2022-08-23T01:03:49.541Z,3.10
2022-08-23T01:04:59.911Z,3.33
2022-08-23T01:06:19.764Z,2.60
2022-08-23T01:07:49.184Z,2.73
2022-08-23T01:09:19.385Z,2.83
2022-08-23T01:10:36.581Z,2.97
2022-08-23T01:12:06.657Z,3.27
2022-08-23T01:13:27.163Z,2.83
2022-08-23T01:14:44.388Z,2.87
2022-08-23T01:15:54.459Z,3.20
2022-08-23T01:17:22.414Z,2.93
2022-08-23T01:18:26.847Z,2.83
2022-08-23T01:19:38.655Z,2.87
2022-08-23T01:20:56.244Z,3.00
2022-08-23T01:22:21.525Z,3.00
2022-08-23T01:23:36.341Z,3.00
2022-08-23T01:25:06.156Z,3.00
2022-08-23T01:26:01.540Z,3.80
2022-08-23T01:27:03.950Z,3.03
2022-08-23T01:28:05.708Z,3.00
2022-08-23T01:29:08.044Z,3.57
2022-08-23T01:30:12.503Z,3.30
2022-08-23T01:31:15.409Z,2.87
2022-08-23T01:32:17.182Z,2.90
2022-08-23T01:33:19.570Z,3.43
2022-08-23T01:34:26.513Z,3.40
2022-08-23T01:35:41.194Z,3.23
2022-08-23T01:36:43.984Z,2.90
2022-08-23T01:37:45.797Z,3.40
2022-08-23T01:38:48.062Z,3.43
2022-08-23T01:39:49.750Z,3.27
2022-08-23T01:40:52.110Z,3.50
2022-08-23T01:41:54.016Z,3.87
2022-08-23T01:42:55.634Z,3.60
2022-08-23T01:43:57.977Z,3.50
2022-08-23T01:44:59.736Z,3.97
2022-08-23T01:46:14.853Z,3.53
2022-08-23T01:47:16.466Z,3.83
2022-08-23T01:48:19.624Z,3.60
2022-08-23T01:49:21.263Z,3.40
2022-08-23T01:50:22.973Z,3.30
2022-08-23T01:51:25.222Z,3.50
2022-08-23T01:52:28.012Z,3.43
2022-08-23T01:53:29.781Z,3.30
2022-08-23T01:54:31.379Z,3.10
2022-08-23T01:55:33.792Z,4.00
2022-08-23T01:56:38.834Z,2.97
2022-08-23T01:57:42.454Z,3.47
2022-08-23T01:58:49.081Z,3.53
2022-08-23T01:59:50.708Z,4.07
2022-08-23T02:00:52.337Z,3.37
2022-08-23T02:01:54.590Z,3.83
2022-08-23T02:02:57.720Z,3.50
2022-08-23T02:04:04.620Z,3.50
2022-08-23T02:05:07.771Z,3.83
2022-08-23T02:06:09.406Z,3.67
2022-08-23T02:07:11.153Z,3.10
2022-08-23T02:08:31.321Z,3.77
2022-08-23T02:09:32.919Z,2.80
2022-08-23T02:10:34.671Z,3.30
2022-08-23T02:11:39.535Z,3.70
2022-08-23T02:12:41.277Z,4.33
2022-08-23T02:13:44.155Z,3.50
2022-08-23T02:14:45.936Z,3.10
2022-08-23T02:15:51.331Z,3.00
2022-08-23T02:17:03.644Z,3.00
2022-08-23T02:18:06.559Z,3.10
2022-08-23T02:19:11.850Z,3.17
2022-08-23T02:20:14.282Z,3.57
2022-08-23T02:21:16.217Z,3.40
2022-08-23T02:22:17.947Z,3.53
2022-08-23T02:23:21.757Z,3.13
2022-08-23T02:24:25.125Z,4.00
2022-08-23T02:25:26.794Z,4.40
2022-08-23T02:26:30.816Z,3.70
2022-08-23T02:27:32.880Z,3.60
2022-08-23T02:28:34.546Z,3.37
2022-08-23T02:29:39.441Z,2.90
2022-08-23T02:30:41.401Z,3.60
2022-08-23T02:31:46.395Z,3.50
2022-08-23T02:32:48.035Z,3.53
2022-08-23T02:35:09.450Z,3.57
2022-08-23T02:36:11.217Z,4.00
2022-08-23T02:37:14.138Z,3.50
2022-08-23T02:38:16.611Z,3.50
2022-08-23T02:39:18.626Z,3.43
2022-08-23T02:40:20.395Z,3.50
2022-08-23T02:41:22.418Z,3.53
2022-08-23T02:42:24.180Z,3.60
2022-08-23T02:43:25.852Z,3.43
2022-08-23T02:44:27.628Z,4.10
2022-08-23T02:45:31.009Z,4.17
2022-08-23T02:46:32.768Z,3.70
2022-08-23T02:47:36.903Z,3.50
2022-08-23T02:48:39.197Z,3.70
2022-08-23T02:49:41.894Z,3.50
2022-08-23T02:50:43.663Z,3.80
2022-08-23T02:51:46.051Z,3.87
2022-08-23T02:52:47.955Z,3.60
2022-08-23T02:53:49.923Z,3.33
2022-08-23T02:54:51.692Z,3.43
2022-08-23T02:55:59.609Z,3.53
2022-08-23T02:57:01.650Z,3.37
2022-08-23T02:58:05.518Z,3.70
2022-08-23T02:59:07.961Z,3.90
2022-08-23T03:00:12.006Z,3.53
2022-08-23T03:01:27.331Z,3.30
2022-08-23T03:02:29.509Z,3.43
2022-08-23T03:03:31.259Z,3.30
2022-08-23T03:04:35.681Z,3.87
2022-08-23T03:05:37.424Z,3.30
2022-08-23T03:06:39.227Z,3.40
2022-08-23T03:07:41.334Z,3.43
2022-08-23T03:08:44.454Z,3.90
2022-08-23T03:09:46.775Z,3.40
2022-08-23T03:10:50.748Z,3.10
2022-08-23T03:11:52.496Z,3.53
2022-08-23T03:12:54.209Z,3.47
2022-08-23T03:13:58.808Z,3.23
2022-08-23T03:15:00.537Z,3.90
2022-08-23T03:16:02.618Z,3.33
2022-08-23T03:17:05.167Z,3.03
2022-08-23T03:18:08.656Z,3.20
2022-08-23T03:19:10.422Z,3.40
2022-08-23T03:20:12.138Z,3.33
2022-08-23T03:21:14.913Z,3.10
2022-08-23T03:22:16.640Z,3.40
2022-08-23T03:23:18.422Z,3.40
2022-08-23T03:24:20.152Z,3.60
2022-08-23T03:25:22.416Z,3.87
2022-08-23T03:26:24.159Z,4.00
2022-08-23T03:27:26.324Z,3.57
2022-08-23T03:28:29.234Z,4.00
2022-08-23T03:29:31.991Z,3.90
2022-08-23T03:30:34.610Z,3.63
2022-08-23T03:31:36.441Z,3.93
2022-08-23T03:32:38.143Z,3.40
2022-08-23T03:33:40.550Z,3.57
2022-08-23T03:34:42.281Z,4.03
2022-08-23T03:35:44.231Z,3.70
2022-08-23T03:36:46.277Z,3.70
2022-08-23T03:37:49.102Z,4.00
2022-08-23T03:38:52.944Z,3.90
2022-08-23T03:39:54.649Z,4.20
2022-08-23T03:40:57.144Z,4.03
2022-08-23T03:41:59.162Z,4.40
2022-08-23T03:43:01.797Z,3.57
2022-08-23T03:44:03.841Z,3.93
2022-08-23T03:45:06.046Z,3.90
2022-08-23T03:46:08.057Z,3.53
2022-08-23T03:47:09.759Z,4.07
2022-08-23T03:48:11.421Z,3.93
2022-08-23T03:49:13.228Z,3.50
2022-08-23T03:50:14.930Z,3.80
2022-08-23T03:51:17.452Z,3.90
2022-08-23T03:52:19.084Z,3.20
2022-08-23T03:53:20.725Z,3.80
2022-08-23T03:54:22.860Z,4.23
2022-08-23T03:55:24.630Z,3.63
2022-08-23T03:56:29.491Z,3.93
2022-08-23T03:57:31.154Z,3.23
2022-08-23T03:58:32.780Z,3.50
2022-08-23T03:59:36.459Z,3.50
2022-08-23T04:00:39.036Z,3.90
2022-08-23T04:01:40.826Z,3.87
2022-08-23T04:02:42.508Z,3.80
2022-08-23T04:03:44.136Z,3.87
2022-08-23T04:04:46.092Z,3.67
2022-08-23T04:05:47.685Z,3.20
2022-08-23T04:06:49.317Z,3.53
2022-08-23T04:07:51.422Z,3.37
2022-08-23T04:08:54.630Z,3.33
2022-08-23T04:09:56.410Z,3.37
2022-08-23T04:10:58.203Z,3.80
2022-08-23T04:11:59.818Z,3.17
2022-08-23T04:13:02.644Z,3.50
2022-08-23T04:14:04.400Z,3.30
2022-08-23T04:15:06.436Z,4.07
2022-08-23T04:16:09.096Z,3.53
2022-08-23T04:17:10.793Z,3.27
2022-08-23T04:18:13.943Z,3.57
2022-08-23T04:19:16.332Z,4.13
2022-08-23T04:20:18.456Z,3.47
2022-08-23T04:21:22.974Z,3.97
2022-08-23T04:22:24.771Z,3.20
2022-08-23T04:23:27.945Z,3.70
2022-08-23T04:24:29.641Z,3.63
2022-08-23T04:25:35.566Z,3.53
2022-08-23T04:26:37.712Z,3.97
2022-08-23T04:27:39.437Z,3.30
2022-08-23T04:28:41.109Z,3.40
2022-08-23T04:29:42.775Z,4.37
2022-08-23T04:30:46.850Z,3.50
2022-08-23T04:31:48.946Z,3.77
2022-08-23T04:32:50.715Z,3.50
2022-08-23T04:33:53.678Z,4.30
2022-08-23T04:34:55.308Z,3.80
2022-08-23T04:35:57.174Z,3.80
2022-08-23T04:36:59.340Z,3.90
2022-08-23T04:38:01.162Z,3.60
2022-08-23T04:39:03.502Z,3.20
2022-08-23T04:40:24.103Z,3.87
2022-08-23T04:41:44.425Z,3.67
2022-08-23T04:42:46.012Z,3.87
2022-08-23T04:43:48.119Z,3.93
2022-08-23T04:44:50.462Z,3.50
2022-08-23T04:45:52.257Z,3.47
2022-08-23T04:46:53.916Z,3.60
2022-08-23T04:47:55.645Z,3.73
2022-08-23T04:48:57.428Z,3.80
2022-08-23T04:49:59.068Z,4.17
2022-08-23T04:51:01.010Z,3.70
2022-08-23T04:52:02.862Z,3.60
2022-08-23T04:53:04.521Z,3.40
2022-08-23T04:54:07.798Z,3.00
2022-08-23T04:55:09.699Z,3.40
2022-08-23T04:56:11.545Z,3.57
2022-08-23T04:57:15.352Z,3.90
2022-08-23T04:58:16.971Z,3.73
2022-08-23T04:59:19.620Z,3.67
2022-08-23T05:00:21.473Z,3.37
2022-08-23T05:01:29.137Z,3.67
2022-08-23T05:02:30.783Z,3.10
2022-08-23T05:03:32.384Z,3.93
2022-08-23T05:04:34.448Z,3.73
2022-08-23T05:05:36.121Z,3.70
2022-08-23T05:06:38.477Z,3.53
2022-08-23T05:07:42.792Z,3.70
2022-08-23T05:08:44.773Z,3.77
2022-08-23T05:09:46.450Z,3.07
2022-08-23T05:10:48.216Z,3.30
2022-08-23T05:11:49.909Z,3.57
2022-08-23T05:12:51.622Z,3.40
2022-08-23T05:13:53.238Z,3.93
2022-08-23T05:14:54.861Z,3.33
2022-08-23T05:15:57.099Z,3.73
2022-08-23T05:16:59.489Z,3.83
2022-08-23T05:18:01.197Z,4.07
2022-08-23T05:19:03.155Z,3.93
2022-08-23T05:20:07.669Z,3.43
2022-08-23T05:21:14.686Z,4.07
2022-08-23T05:22:16.299Z,4.37
2022-08-23T05:23:18.095Z,3.80
2022-08-23T05:24:20.185Z,3.67
2022-08-23T05:25:22.272Z,3.30
2022-08-23T05:26:23.951Z,3.83
2022-08-23T05:27:25.898Z,3.37
2022-08-23T05:28:30.487Z,3.00
2022-08-23T05:29:32.091Z,3.03
2022-08-23T05:30:33.712Z,3.37
2022-08-23T05:31:35.665Z,3.37
2022-08-23T05:32:37.480Z,3.43
2022-08-23T05:33:40.735Z,3.10
2022-08-23T05:34:42.719Z,2.87
2022-08-23T05:35:44.346Z,3.10
2022-08-23T05:36:47.406Z,2.97
2022-08-23T05:37:59.656Z,3.30
2022-08-23T05:39:05.643Z,3.20
2022-08-23T05:40:07.938Z,3.30
2022-08-23T05:41:10.428Z,3.27
2022-08-23T05:42:14.784Z,3.07
2022-08-23T05:43:17.437Z,2.93
2022-08-23T05:44:21.460Z,2.80
2022-08-23T05:45:23.241Z,2.83
2022-08-23T05:46:28.357Z,3.00
2022-08-23T05:47:32.745Z,2.90
2022-08-23T05:48:36.043Z,3.63
2022-08-23T05:49:38.367Z,2.60
2022-08-23T05:50:40.165Z,3.13
2022-08-23T05:51:42.356Z,2.77
2022-08-23T05:52:50.385Z,2.73
2022-08-23T05:53:53.827Z,2.60
2022-08-23T05:54:55.435Z,3.43
2022-08-23T05:55:57.053Z,2.83
2022-08-23T05:56:58.724Z,2.90
2022-08-23T05:58:00.745Z,2.70
2022-08-23T05:59:07.974Z,2.50
2022-08-23T06:00:15.498Z,2.60
2022-08-23T06:01:18.850Z,3.03
2022-08-23T06:02:20.532Z,2.97
2022-08-23T06:03:22.161Z,2.50
2022-08-23T06:04:23.925Z,2.27
2022-08-23T06:05:25.620Z,2.87
2022-08-23T06:06:37.211Z,2.50
2022-08-23T06:07:39.506Z,2.40
2022-08-23T06:08:42.377Z,2.37
2022-08-23T06:09:44.067Z,1.80
2022-08-23T06:10:45.916Z,2.13
2022-08-23T06:11:48.960Z,2.03
2022-08-23T06:12:50.573Z,2.37
2022-08-23T06:13:55.334Z,2.60
2022-08-23T06:14:57.729Z,2.27
2022-08-23T06:15:59.604Z,2.10
2022-08-23T06:17:01.230Z,1.97
2022-08-23T06:18:03.075Z,2.30
2022-08-23T06:19:07.632Z,2.37
2022-08-23T06:20:10.354Z,2.40
2022-08-23T06:21:14.056Z,2.00
2022-08-23T06:22:15.916Z,1.87
2022-08-23T06:23:17.503Z,2.00
2022-08-23T06:24:20.130Z,2.20
2022-08-23T06:25:21.746Z,2.30
2022-08-23T06:26:26.736Z,1.93
2022-08-23T06:27:28.576Z,2.00
2022-08-23T06:28:30.510Z,2.00
2022-08-23T06:29:32.286Z,1.87
2022-08-23T06:30:36.981Z,2.30
2022-08-23T06:31:47.780Z,1.87
2022-08-23T06:32:50.419Z,1.70
2022-08-23T06:33:52.080Z,2.00
2022-08-23T06:34:54.395Z,2.03
2022-08-23T06:36:17.192Z,2.40
2022-08-23T06:37:18.832Z,2.00
2022-08-23T06:38:20.840Z,2.03
2022-08-23T06:39:25.828Z,2.13
2022-08-23T06:40:29.056Z,2.00
2022-08-23T06:41:30.882Z,2.17
2022-08-23T06:42:38.100Z,1.97
2022-08-23T06:43:40.879Z,2.10
2022-08-23T06:44:42.748Z,2.13
2022-08-23T06:45:44.442Z,2.13
2022-08-23T06:46:58.514Z,2.00
2022-08-23T06:48:00.476Z,2.07
2022-08-23T06:49:05.252Z,2.40
2022-08-23T06:50:07.408Z,2.40
2022-08-23T06:51:12.520Z,2.30
2022-08-23T06:52:14.247Z,2.23
2022-08-23T06:53:16.964Z,2.20
2022-08-23T06:54:22.101Z,2.30
2022-08-23T06:55:23.739Z,2.47
2022-08-23T06:56:26.710Z,1.90
2022-08-23T06:57:28.453Z,1.70
2022-08-23T06:58:30.078Z,2.20
2022-08-23T06:59:31.730Z,1.87
2022-08-23T07:00:33.366Z,2.30
2022-08-23T07:01:47.698Z,2.57
2022-08-23T07:02:58.780Z,2.30
2022-08-23T07:04:02.400Z,2.40
2022-08-23T07:05:05.114Z,2.30
2022-08-23T07:06:07.816Z,2.20
2022-08-23T07:07:11.790Z,2.50
2022-08-23T07:08:13.953Z,1.90
2022-08-23T07:09:16.743Z,1.73
2022-08-23T07:10:18.588Z,2.43
2022-08-23T07:11:21.906Z,2.10
2022-08-23T07:12:23.570Z,2.13
2022-08-23T07:13:25.221Z,2.07
2022-08-23T07:14:27.695Z,2.03
2022-08-23T07:15:29.398Z,2.40
2022-08-23T07:16:43.375Z,2.07
2022-08-23T07:17:45.245Z,2.20
2022-08-23T07:18:49.560Z,2.03
2022-08-23T07:19:51.766Z,2.03
2022-08-23T07:20:58.671Z,2.50
2022-08-23T07:22:02.776Z,2.40
2022-08-23T07:23:05.451Z,2.20
2022-08-23T07:24:07.355Z,2.27
2022-08-23T07:25:09.338Z,2.13
2022-08-23T07:26:13.616Z,2.10
2022-08-23T07:27:15.267Z,2.07
2022-08-23T07:28:16.925Z,2.50
2022-08-23T07:29:20.858Z,2.20
2022-08-23T07:30:22.521Z,2.20
2022-08-23T07:31:27.478Z,2.03
2022-08-23T07:32:29.202Z,1.80
2022-08-23T07:33:31.730Z,1.80
2022-08-23T07:34:35.135Z,2.40
2022-08-23T07:35:40.236Z,2.20
2022-08-23T07:36:44.301Z,2.13
2022-08-23T07:37:45.902Z,2.30
2022-08-23T07:38:47.901Z,2.30
2022-08-23T07:39:49.533Z,2.03
2022-08-23T07:40:54.120Z,2.07
2022-08-23T07:41:58.264Z,2.03
2022-08-23T07:43:03.141Z,1.80
2022-08-23T07:44:07.107Z,2.30
2022-08-23T07:45:09.988Z,1.97
2022-08-23T07:46:12.702Z,1.87
2022-08-23T07:47:14.593Z,2.07
2022-08-23T07:48:31.817Z,2.07
2022-08-23T07:49:38.234Z,1.90
2022-08-23T07:50:40.791Z,2.57
2022-08-23T07:51:58.775Z,2.07
2022-08-23T07:53:02.956Z,2.00
2022-08-23T07:54:07.181Z,2.47
2022-08-23T07:55:09.285Z,2.33
2022-08-23T07:56:13.356Z,1.93
2022-08-23T07:57:14.973Z,2.23
2022-08-23T07:58:16.759Z,2.07
2022-08-23T07:59:18.375Z,2.17
2022-08-23T08:00:20.055Z,2.23
2022-08-23T08:01:27.670Z,2.33
2022-08-23T08:02:29.321Z,2.03
2022-08-23T08:03:30.968Z,2.20
2022-08-23T08:04:32.584Z,2.40
2022-08-23T08:05:34.814Z,2.40
2022-08-23T08:06:41.810Z,2.47
2022-08-23T08:07:43.504Z,2.43
2022-08-23T08:08:45.812Z,1.80
2022-08-23T08:09:47.457Z,2.00
2022-08-23T08:10:54.278Z,2.20
2022-08-23T08:11:55.896Z,2.63
2022-08-23T08:12:57.982Z,2.00
2022-08-23T08:14:01.540Z,2.00
2022-08-23T08:15:04.830Z,2.03
2022-08-23T08:16:08.732Z,2.30
2022-08-23T08:17:10.704Z,1.80
2022-08-23T08:18:12.388Z,2.00
2022-08-23T08:19:16.896Z,1.70
2022-08-23T08:20:21.803Z,2.00
2022-08-23T08:21:23.723Z,2.40
2022-08-23T08:22:25.324Z,1.90
2022-08-23T08:23:29.229Z,2.20
2022-08-23T08:24:30.858Z,2.20
2022-08-23T08:25:34.246Z,2.00
2022-08-23T08:26:36.379Z,1.83
2022-08-23T08:27:38.541Z,2.10
2022-08-23T08:28:40.769Z,2.30
2022-08-23T08:29:43.826Z,2.23
2022-08-23T08:30:45.421Z,2.10
2022-08-23T08:31:50.377Z,2.00
2022-08-23T08:32:55.692Z,1.60
2022-08-23T08:33:57.360Z,1.40
2022-08-23T08:34:59.019Z,1.83
2022-08-23T08:36:04.308Z,1.17
2022-08-23T08:37:07.598Z,1.40
2022-08-23T08:38:10.907Z,1.90
2022-08-23T08:39:15.942Z,1.53
2022-08-23T08:40:26.710Z,1.30
2022-08-23T08:42:03.816Z,1.83
2022-08-23T08:43:20.898Z,1.77
2022-08-23T08:44:37.418Z,1.60
2022-08-23T08:46:06.372Z,1.40
2022-08-23T08:47:19.381Z,1.70
2022-08-23T08:48:24.281Z,1.60
2022-08-23T08:49:35.378Z,1.60
2022-08-23T08:50:43.161Z,1.53
2022-08-23T08:51:58.746Z,1.57
2022-08-23T08:53:30.989Z,1.97
2022-08-23T08:54:32.879Z,1.40
2022-08-23T08:55:44.692Z,1.47
2022-08-23T08:56:52.376Z,1.73
2022-08-23T08:57:55.226Z,1.67
2022-08-23T08:59:03.765Z,2.10
2022-08-23T09:00:08.894Z,1.60
2022-08-23T09:01:10.581Z,1.30
2022-08-23T09:02:31.911Z,1.27
2022-08-23T09:03:36.141Z,1.60
2022-08-23T09:04:38.153Z,1.50
2022-08-23T09:05:52.618Z,1.40
2022-08-23T09:07:37.600Z,1.20
2022-08-23T09:08:53.904Z,1.47
2022-08-23T09:10:11.476Z,1.70
2022-08-23T09:11:22.535Z,1.50
2022-08-23T09:12:32.968Z,1.60
2022-08-23T09:14:24.159Z,1.30
2022-08-23T09:15:49.480Z,1.67
2022-08-23T09:17:05.270Z,1.90
2022-08-23T09:18:11.645Z,2.00
2022-08-23T09:19:13.832Z,1.73
2022-08-23T09:20:17.839Z,2.00
2022-08-23T09:21:20.316Z,1.33
2022-08-23T09:22:30.737Z,1.47
2022-08-23T09:24:00.337Z,1.67
2022-08-23T09:25:02.340Z,1.40
2022-08-23T09:26:20.212Z,1.40
2022-08-23T09:27:22.744Z,1.73
2022-08-23T09:28:24.897Z,1.57
2022-08-23T09:29:32.350Z,1.60
2022-08-23T09:30:54.881Z,1.40
2022-08-23T09:32:02.618Z,1.43
2022-08-23T09:33:26.245Z,1.57
2022-08-23T09:34:42.142Z,1.33
2022-08-23T09:35:43.774Z,1.57
2022-08-23T09:36:46.090Z,1.50
2022-08-23T09:37:53.181Z,1.27
2022-08-23T09:39:00.750Z,1.60
2022-08-23T09:40:19.980Z,1.10
2022-08-23T09:41:28.341Z,1.30
2022-08-23T09:42:33.596Z,1.30
2022-08-23T09:43:44.316Z,1.47
2022-08-23T09:44:45.942Z,1.50
2022-08-23T09:45:51.065Z,1.37
2022-08-23T09:47:06.784Z,1.40
2022-08-23T09:48:13.342Z,1.53
2022-08-23T09:49:22.864Z,1.43
2022-08-23T09:50:49.960Z,1.50
2022-08-23T09:51:54.247Z,1.40
2022-08-23T09:53:04.294Z,1.73
2022-08-23T09:54:13.342Z,1.23
2022-08-23T09:55:56.108Z,1.40
2022-08-23T09:57:01.210Z,1.40
2022-08-23T09:58:06.710Z,1.10
2022-08-23T09:59:34.037Z,1.40
2022-08-23T10:00:36.964Z,1.50
2022-08-23T10:01:39.486Z,1.50
2022-08-23T10:02:41.311Z,1.43
2022-08-23T10:03:43.099Z,1.70
2022-08-23T10:04:52.531Z,1.40
2022-08-23T10:05:58.248Z,1.37
2022-08-23T10:06:59.891Z,1.33
2022-08-23T10:08:02.910Z,1.30
2022-08-23T10:09:06.969Z,1.53
2022-08-23T10:10:20.648Z,1.73
2022-08-23T10:11:26.055Z,1.10
2022-08-23T10:12:29.857Z,1.03
2022-08-23T10:13:32.564Z,1.33
2022-08-23T10:14:34.223Z,1.00
2022-08-23T10:15:49.333Z,1.17
2022-08-23T10:17:11.076Z,1.07
2022-08-23T10:18:53.639Z,1.57
2022-08-23T10:20:15.129Z,1.50
2022-08-23T10:21:41.925Z,1.43
2022-08-23T10:22:54.580Z,1.47
2022-08-23T10:24:16.763Z,1.23
2022-08-23T10:25:35.764Z,1.70
2022-08-23T10:26:45.044Z,1.53
2022-08-23T10:28:16.233Z,1.57
2022-08-23T10:29:41.192Z,1.40
2022-08-23T10:31:02.107Z,1.40
2022-08-23T10:32:22.830Z,1.60
2022-08-23T10:33:42.509Z,1.17
2022-08-23T10:35:06.228Z,1.60
2022-08-23T10:36:27.412Z,1.70
2022-08-23T10:37:57.720Z,1.33
2022-08-23T10:39:13.163Z,1.40
2022-08-23T10:40:25.581Z,1.37
2022-08-23T10:42:00.831Z,1.40
2022-08-23T10:43:34.928Z,1.27
2022-08-23T10:45:00.624Z,1.30
2022-08-23T10:46:03.159Z,1.40
2022-08-23T10:47:14.268Z,1.20
2022-08-23T10:48:35.934Z,1.20
2022-08-23T10:49:40.098Z,1.10
2022-08-23T10:50:55.932Z,1.30
2022-08-23T10:51:59.242Z,1.00
2022-08-23T10:53:15.122Z,1.23
2022-08-23T10:54:45.886Z,1.13
2022-08-23T10:56:02.920Z,1.20
2022-08-23T10:57:06.323Z,1.30
2022-08-23T10:58:15.564Z,1.13
2022-08-23T10:59:24.181Z,1.67
2022-08-23T11:00:29.192Z,1.30
2022-08-23T11:01:39.725Z,1.40
2022-08-23T11:02:59.663Z,1.10
2022-08-23T11:04:29.736Z,1.20
2022-08-23T11:05:35.393Z,1.37
2022-08-23T11:06:37.230Z,1.17
2022-08-23T11:07:42.883Z,1.23
2022-08-23T11:08:48.087Z,1.30
2022-08-23T11:09:58.353Z,1.23
2022-08-23T11:11:00.308Z,1.53
2022-08-23T11:12:22.733Z,1.00
2022-08-23T11:13:30.217Z,1.30
2022-08-23T11:14:32.163Z,1.40
2022-08-23T11:16:01.003Z,0.97
2022-08-23T11:17:07.821Z,1.13
2022-08-23T11:18:33.329Z,1.37
2022-08-23T11:19:57.489Z,1.27
2022-08-23T11:21:01.810Z,1.30
2022-08-23T11:22:20.443Z,1.20
2022-08-23T11:23:44.113Z,1.20
2022-08-23T11:24:50.970Z,1.40
2022-08-23T11:25:53.239Z,1.30
2022-08-23T11:27:07.116Z,1.67
2022-08-23T11:28:24.190Z,1.07
2022-08-23T11:29:28.482Z,1.27
2022-08-23T11:30:33.440Z,1.10
2022-08-23T11:31:41.396Z,1.30
2022-08-23T11:32:45.509Z,1.03
2022-08-23T11:34:05.684Z,1.10
2022-08-23T11:35:43.022Z,0.87
2022-08-23T11:37:24.647Z,1.60
2022-08-23T11:38:47.697Z,1.27
2022-08-23T11:40:06.308Z,1.10
2022-08-23T11:41:28.260Z,1.00
2022-08-23T11:42:33.188Z,1.13
2022-08-23T11:43:40.373Z,1.27
2022-08-23T11:44:48.661Z,1.10
2022-08-23T11:45:54.156Z,1.23
2022-08-23T11:47:02.700Z,1.43
2022-08-23T11:48:19.920Z,1.10
2022-08-23T11:49:39.078Z,0.90
2022-08-23T11:50:57.805Z,1.70
2022-08-23T11:52:27.113Z,1.07
2022-08-23T11:53:49.441Z,1.47
2022-08-23T11:55:10.538Z,1.20
2022-08-23T11:56:53.454Z,1.43
2022-08-23T11:58:10.356Z,1.30
2022-08-23T11:59:49.278Z,1.73
2022-08-23T12:01:07.616Z,1.10
2022-08-23T12:02:48.028Z,1.53
2022-08-23T12:04:09.529Z,1.50
2022-08-23T12:05:23.495Z,1.30
2022-08-23T12:06:50.569Z,1.40
2022-08-23T12:08:13.850Z,1.17
2022-08-23T12:09:24.446Z,1.47
2022-08-23T12:10:41.103Z,1.40
2022-08-23T12:11:54.965Z,1.37
2022-08-23T12:13:18.413Z,1.70
2022-08-23T12:14:32.143Z,1.40
2022-08-23T12:16:16.520Z,1.47
2022-08-23T12:17:20.353Z,1.93
2022-08-23T12:18:26.662Z,2.10
2022-08-23T12:19:42.297Z,1.53
2022-08-23T12:20:48.600Z,1.67
2022-08-23T12:21:54.785Z,1.20
2022-08-23T12:23:07.722Z,1.60
2022-08-23T12:24:32.802Z,1.00
2022-08-23T12:25:35.078Z,1.20
2022-08-23T12:26:42.163Z,1.20
2022-08-23T12:27:51.185Z,1.10
2022-08-23T12:28:59.772Z,0.97
2022-08-23T12:30:25.108Z,1.17
2022-08-23T12:31:35.640Z,1.07
2022-08-23T12:32:55.230Z,1.50
2022-08-23T12:34:24.457Z,1.23
2022-08-23T12:35:30.219Z,1.40
2022-08-23T12:36:48.068Z,1.20
2022-08-23T12:38:14.135Z,1.50
2022-08-23T12:39:50.635Z,1.50
2022-08-23T12:40:54.638Z,1.20
2022-08-23T12:42:11.492Z,1.03
2022-08-23T12:43:24.381Z,1.20
2022-08-23T12:44:28.623Z,1.20
2022-08-23T12:45:38.245Z,1.30
2022-08-23T12:46:44.012Z,1.10
2022-08-23T12:48:00.621Z,1.40
2022-08-23T12:49:03.205Z,1.33
2022-08-23T12:50:10.423Z,1.03
2022-08-23T12:51:12.949Z,1.10
2022-08-23T12:52:14.728Z,1.23
2022-08-23T12:53:30.780Z,1.30
2022-08-23T12:54:41.928Z,1.20
2022-08-23T12:55:49.712Z,1.37
2022-08-23T12:56:54.566Z,1.03
2022-08-23T12:57:58.089Z,1.30
2022-08-23T12:59:07.017Z,1.17
2022-08-23T13:00:18.495Z,1.40
2022-08-23T13:01:31.478Z,1.30
2022-08-23T13:02:41.101Z,1.13
2022-08-23T13:03:46.994Z,1.30
2022-08-23T13:04:48.615Z,1.37
2022-08-23T13:05:57.145Z,1.47
2022-08-23T13:07:08.194Z,1.27
2022-08-23T13:08:13.847Z,1.67
2022-08-23T13:09:21.957Z,1.53
2022-08-23T13:10:24.890Z,1.00
2022-08-23T13:11:31.101Z,1.40
2022-08-23T13:12:32.824Z,1.40
2022-08-23T13:13:36.639Z,1.40
2022-08-23T13:14:40.907Z,1.60
2022-08-23T13:15:55.989Z,1.37
2022-08-23T13:17:12.380Z,1.47
2022-08-23T13:18:45.770Z,1.60
2022-08-23T13:19:50.652Z,1.13
2022-08-23T13:21:17.485Z,1.10
2022-08-23T13:22:25.057Z,1.47
2022-08-23T13:23:29.647Z,1.40
2022-08-23T13:24:38.044Z,1.23
2022-08-23T13:25:42.043Z,1.50
2022-08-23T13:26:44.886Z,0.97
2022-08-23T13:27:46.433Z,1.50
2022-08-23T13:29:08.365Z,1.93
2022-08-23T13:30:09.917Z,1.40
2022-08-23T13:31:11.553Z,1.43
2022-08-23T13:32:41.702Z,1.33
2022-08-23T13:33:53.456Z,1.00
2022-08-23T13:34:56.476Z,1.40
2022-08-23T13:36:16.088Z,1.60
2022-08-23T13:37:29.194Z,1.20
2022-08-23T13:38:32.250Z,1.57
2022-08-23T13:39:34.559Z,1.00
2022-08-23T13:41:03.430Z,1.20
2022-08-23T13:42:05.136Z,1.37
2022-08-23T13:43:12.020Z,1.37
2022-08-23T13:44:18.511Z,1.27
2022-08-23T13:45:24.629Z,1.40
2022-08-23T13:46:29.350Z,1.30
2022-08-23T13:47:31.308Z,1.23
2022-08-23T13:48:54.231Z,1.90
2022-08-23T13:49:58.017Z,1.48
2022-08-23T13:51:19.119Z,1.13
2022-08-23T13:53:42.274Z,1.33
2022-08-23T13:54:44.225Z,1.42
2022-08-23T13:55:53.722Z,1.35
2022-08-23T13:57:00.518Z,1.20
2022-08-23T13:58:02.160Z,1.55
2022-08-23T13:59:32.605Z,1.20
2022-08-23T14:00:34.204Z,1.30
2022-08-23T14:01:36.317Z,1.10
2022-08-23T14:02:38.848Z,1.20
2022-08-23T14:03:40.458Z,1.50
2022-08-23T14:04:42.637Z,1.60
2022-08-23T14:05:44.252Z,1.50
2022-08-23T14:06:48.816Z,1.20
2022-08-23T14:07:52.954Z,1.30
2022-08-23T14:08:54.604Z,1.50
2022-08-23T14:09:57.484Z,1.53
2022-08-23T14:10:59.186Z,1.40
2022-08-23T14:12:04.771Z,1.57
2022-08-23T14:13:11.741Z,1.30
2022-08-23T14:14:13.603Z,1.50
2022-08-23T14:15:16.265Z,1.60
2022-08-23T14:16:39.112Z,1.17
2022-08-23T14:17:45.224Z,1.27
2022-08-23T14:21:32.863Z,1.50
2022-08-23T14:22:35.393Z,1.30
2022-08-23T14:23:37.023Z,1.20
2022-08-23T14:24:38.855Z,1.57
2022-08-23T14:25:40.563Z,1.80
2022-08-23T14:26:51.803Z,1.30
2022-08-23T14:27:54.089Z,1.33
2022-08-23T14:28:56.288Z,1.10
2022-08-23T14:29:58.375Z,1.43
2022-08-23T14:31:00.169Z,1.40
2022-08-23T14:32:02.481Z,1.10
2022-08-23T14:33:04.630Z,1.50
2022-08-23T14:34:06.294Z,1.40
2022-08-23T14:35:08.481Z,1.50
2022-08-23T14:36:13.817Z,1.43
2022-08-23T14:38:37.304Z,1.60
2022-08-23T14:39:38.912Z,1.77
2022-08-23T14:40:42.539Z,1.37
2022-08-23T14:41:44.207Z,1.00
2022-08-23T14:42:46.834Z,1.47
2022-08-23T14:43:49.866Z,1.37
2022-08-23T14:44:51.527Z,1.60
2022-08-23T14:45:54.428Z,1.20
2022-08-23T14:46:56.125Z,1.50
2022-08-23T14:47:58.437Z,1.60
2022-08-23T14:49:00.022Z,1.53
2022-08-23T14:50:06.762Z,1.40
2022-08-23T14:51:27.991Z,1.43
2022-08-23T14:52:29.750Z,1.33
2022-08-23T14:53:33.932Z,1.50
2022-08-23T14:54:35.638Z,1.10
2022-08-23T14:55:37.512Z,1.30
2022-08-23T14:56:39.158Z,1.03
2022-08-23T14:57:41.169Z,1.40
2022-08-23T14:58:42.912Z,1.20
2022-08-23T14:59:44.593Z,1.33